createdAt,value
2022-10-01T00:01:16.363Z,329.75
2022-10-01T00:03:43.808Z,326.52
2022-10-01T00:06:19.036Z,327.33
2022-10-01T00:08:49.259Z,322.42
2022-10-01T00:11:19.064Z,321.60
2022-10-01T00:13:46.443Z,327.95
2022-10-01T00:16:16.485Z,327.60
2022-10-01T00:18:45.611Z,328.45
2022-10-01T00:21:15.358Z,324.05
2022-10-01T00:23:42.434Z,330.40
2022-10-01T00:26:21.027Z,331.02
2022-10-01T00:28:52.640Z,331.27
2022-10-01T00:31:19.384Z,327.27
2022-10-01T00:33:48.257Z,331.83
2022-10-01T00:36:14.861Z,326.58
2022-10-01T00:38:41.569Z,325.95
2022-10-01T00:41:09.434Z,321.48
2022-10-01T00:43:40.089Z,322.48
2022-10-01T00:46:18.081Z,329.48
2022-10-01T00:49:00.270Z,327.75
2022-10-01T00:51:30.569Z,319.02
2022-10-01T00:54:05.652Z,319.48
2022-10-01T00:56:32.884Z,309.83
2022-10-01T00:59:00.148Z,320.07
2022-10-01T01:01:26.757Z,318.95
2022-10-01T01:03:53.421Z,317.30
2022-10-01T01:06:20.101Z,320.37
2022-10-01T01:08:53.450Z,315.27
2022-10-01T01:11:35.097Z,319.77
2022-10-01T01:14:15.026Z,318.80
2022-10-01T01:17:11.586Z,315.65
2022-10-01T01:20:09.637Z,319.23
2022-10-01T01:22:42.212Z,314.75
2022-10-01T01:25:18.120Z,308.75
2022-10-01T01:28:06.693Z,304.52
2022-10-01T01:30:34.431Z,303.13
2022-10-01T01:33:05.959Z,315.80
2022-10-01T01:35:39.505Z,314.92
2022-10-01T01:38:14.177Z,317.30
2022-10-01T01:40:44.555Z,318.33
2022-10-01T01:43:19.484Z,318.65
2022-10-01T01:45:49.844Z,322.50
2022-10-01T01:48:16.519Z,315.90
2022-10-01T01:51:18.068Z,319.55
2022-10-01T01:53:44.788Z,313.63
2022-10-01T01:56:11.621Z,313.20
2022-10-01T01:58:39.210Z,313.30
2022-10-01T02:01:05.775Z,307.13
2022-10-01T02:03:34.401Z,312.63
2022-10-01T02:06:30.295Z,310.30
2022-10-01T02:09:05.993Z,316.70
2022-10-01T02:11:38.641Z,308.90
2022-10-01T02:14:28.586Z,309.92
2022-10-01T02:17:03.654Z,326.38
2022-10-01T02:20:12.705Z,330.88
2022-10-01T02:22:43.733Z,328.95
2022-10-01T02:25:13.083Z,321.87
2022-10-01T02:27:56.185Z,324.20
2022-10-01T02:30:22.843Z,323.10
2022-10-01T02:32:50.662Z,327.67
2022-10-01T02:35:19.365Z,327.92
2022-10-01T02:37:51.499Z,324.60
2022-10-01T02:40:22.344Z,331.23
2022-10-01T02:42:55.063Z,331.38
2022-10-01T02:45:27.504Z,325.33
2022-10-01T02:47:59.891Z,327.08
2022-10-01T02:50:34.744Z,332.20
2022-10-01T02:53:08.810Z,330.60
2022-10-01T02:55:38.955Z,321.83
2022-10-01T02:58:07.159Z,316.45
2022-10-01T03:00:33.773Z,307.85
2022-10-01T03:03:00.435Z,321.30
2022-10-01T03:05:27.072Z,324.33
2022-10-01T03:07:56.017Z,328.05
2022-10-01T03:10:22.575Z,332.33
2022-10-01T03:12:50.940Z,338.67
2022-10-01T03:15:19.331Z,331.45
2022-10-01T03:17:46.842Z,330.98
2022-10-01T03:20:13.452Z,327.00
2022-10-01T03:22:40.029Z,329.25
2022-10-01T03:25:06.901Z,332.23
2022-10-01T03:27:33.623Z,338.45
2022-10-01T03:30:00.204Z,331.98
2022-10-01T03:32:26.757Z,327.67
2022-10-01T03:34:53.316Z,327.45
2022-10-01T03:37:19.839Z,325.20
2022-10-01T03:39:47.684Z,324.90
2022-10-01T03:42:15.179Z,328.03
2022-10-01T03:44:41.719Z,318.45
2022-10-01T03:47:10.027Z,321.05
2022-10-01T03:49:37.225Z,324.42
2022-10-01T03:52:06.612Z,325.85
2022-10-01T03:54:33.364Z,324.45
2022-10-01T03:56:59.901Z,329.75
2022-10-01T03:59:27.458Z,319.02
2022-10-01T04:01:54.286Z,324.70
2022-10-01T04:04:20.947Z,324.50
2022-10-01T04:06:47.584Z,321.48
2022-10-01T04:09:14.133Z,318.27
2022-10-01T04:11:40.665Z,320.00
2022-10-01T04:14:07.254Z,320.97
2022-10-01T04:16:37.065Z,324.25
2022-10-01T04:19:04.459Z,320.67
2022-10-01T04:21:31.216Z,318.42
2022-10-01T04:23:58.167Z,328.05
2022-10-01T04:26:25.182Z,324.63
2022-10-01T04:28:51.755Z,327.42
2022-10-01T04:31:27.228Z,329.25
2022-10-01T04:33:56.093Z,328.20
2022-10-01T04:36:24.338Z,319.50
2022-10-01T04:39:00.938Z,317.83
2022-10-01T04:41:30.646Z,318.88
2022-10-01T04:43:59.694Z,315.85
2022-10-01T04:46:26.448Z,311.97
2022-10-01T04:48:53.082Z,313.57
2022-10-01T04:51:19.652Z,305.98
2022-10-01T04:53:46.257Z,303.20
2022-10-01T04:56:12.763Z,304.52
2022-10-01T04:58:39.362Z,306.25
2022-10-01T05:01:06.073Z,305.92
2022-10-01T05:03:32.745Z,290.30
2022-10-01T05:05:59.311Z,290.50
2022-10-01T05:08:25.832Z,291.53
2022-10-01T05:10:53.084Z,291.20
2022-10-01T05:13:19.651Z,288.25
2022-10-01T05:15:49.103Z,288.55
2022-10-01T05:18:15.722Z,290.70
2022-10-01T05:20:42.289Z,289.80
2022-10-01T05:23:08.808Z,295.57
2022-10-01T05:25:35.412Z,295.85
2022-10-01T05:28:05.924Z,292.50
2022-10-01T05:30:33.737Z,284.40
2022-10-01T05:33:02.173Z,295.30
2022-10-01T05:35:29.691Z,274.35
2022-10-01T05:37:58.884Z,271.05
2022-10-01T05:40:28.462Z,286.17
2022-10-01T05:42:59.833Z,287.98
2022-10-01T05:45:30.931Z,290.37
2022-10-01T05:47:59.697Z,284.08
2022-10-01T05:50:27.081Z,291.45
2022-10-01T05:52:54.667Z,267.38
2022-10-01T05:55:22.363Z,259.63
2022-10-01T05:57:59.358Z,268.85
2022-10-01T06:00:29.479Z,269.42
2022-10-01T06:02:59.925Z,278.45
2022-10-01T06:05:27.625Z,282.70
2022-10-01T06:07:54.277Z,292.98
2022-10-01T06:10:21.742Z,297.90
2022-10-01T06:12:48.643Z,304.30
2022-10-01T06:15:17.246Z,291.35
2022-10-01T06:17:46.848Z,285.90
2022-10-01T06:20:15.767Z,271.95
2022-10-01T06:22:43.418Z,278.20
2022-10-01T06:25:12.153Z,280.37
2022-10-01T06:27:39.210Z,264.95
2022-10-01T06:30:07.042Z,268.50
2022-10-01T06:32:35.146Z,278.23
2022-10-01T06:35:02.848Z,267.73
2022-10-01T06:37:29.790Z,262.50
2022-10-01T06:39:56.493Z,274.10
2022-10-01T06:42:23.221Z,274.13
2022-10-01T06:44:49.788Z,277.10
2022-10-01T06:47:16.313Z,257.38
2022-10-01T06:49:47.344Z,265.42
2022-10-01T06:52:32.888Z,273.33
2022-10-01T06:55:01.245Z,269.48
2022-10-01T06:57:28.557Z,276.20
2022-10-01T06:59:55.743Z,272.10
2022-10-01T07:02:28.195Z,254.90
2022-10-01T07:05:01.600Z,261.10
2022-10-01T07:07:32.724Z,265.70
2022-10-01T07:09:59.320Z,281.73
2022-10-01T07:12:26.714Z,274.17
2022-10-01T07:14:54.547Z,248.63
2022-10-01T07:17:22.058Z,263.48
2022-10-01T07:19:48.666Z,270.27
2022-10-01T07:22:15.233Z,259.65
2022-10-01T07:24:41.930Z,244.45
2022-10-01T07:27:08.910Z,250.93
2022-10-01T07:29:35.501Z,251.50
2022-10-01T07:32:04.071Z,259.90
2022-10-01T07:34:33.547Z,249.73
2022-10-01T07:37:02.221Z,247.38
2022-10-01T07:39:28.910Z,246.02
2022-10-01T07:41:56.020Z,234.87
2022-10-01T07:44:22.610Z,236.60
2022-10-01T07:46:49.233Z,230.23
2022-10-01T07:49:16.858Z,238.23
2022-10-01T07:51:43.940Z,237.55
2022-10-01T07:54:11.028Z,247.50
2022-10-01T07:56:38.172Z,231.73
2022-10-01T07:59:04.941Z,224.10
2022-10-01T08:01:32.552Z,229.07
2022-10-01T08:04:02.489Z,232.55
2022-10-01T08:06:29.659Z,232.40
2022-10-01T08:08:56.290Z,226.18
2022-10-01T08:11:24.726Z,214.00
2022-10-01T08:13:51.383Z,213.57
2022-10-01T08:16:18.281Z,218.15
2022-10-01T08:18:44.907Z,217.25
2022-10-01T08:21:11.563Z,214.27
2022-10-01T08:23:38.090Z,216.07
2022-10-01T08:26:08.048Z,209.73
2022-10-01T08:28:35.376Z,205.40
2022-10-01T08:31:09.945Z,199.07
2022-10-01T08:33:38.360Z,205.33
2022-10-01T08:36:09.597Z,201.52
2022-10-01T08:38:36.831Z,202.32
2022-10-01T08:41:23.391Z,200.13
2022-10-01T08:43:51.831Z,202.40
2022-10-01T08:46:21.801Z,198.50
2022-10-01T08:49:08.694Z,199.02
2022-10-01T08:51:50.419Z,202.48
2022-10-01T08:54:34.276Z,208.68
2022-10-01T08:57:04.753Z,206.40
2022-10-01T08:59:43.657Z,201.50
2022-10-01T09:02:28.492Z,205.23
2022-10-01T09:05:01.468Z,201.35
2022-10-01T09:07:59.602Z,196.70
2022-10-01T09:10:47.733Z,193.43
2022-10-01T09:13:32.608Z,197.52
2022-10-01T09:16:13.755Z,187.30
2022-10-01T09:19:20.226Z,187.15
2022-10-01T09:22:02.088Z,183.73
2022-10-01T09:24:54.991Z,194.15
2022-10-01T09:27:25.868Z,192.98
2022-10-01T09:30:00.778Z,200.25
2022-10-01T09:32:33.394Z,199.88
2022-10-01T09:35:07.711Z,203.82
2022-10-01T09:37:58.011Z,192.38
2022-10-01T09:40:36.003Z,195.93
2022-10-01T09:43:08.579Z,185.32
2022-10-01T09:45:37.085Z,199.85
2022-10-01T09:48:37.532Z,206.32
2022-10-01T09:51:17.854Z,199.75
2022-10-01T09:54:06.482Z,208.15
2022-10-01T09:56:56.502Z,207.07
2022-10-01T09:59:31.328Z,198.02
2022-10-01T10:02:02.081Z,187.60
2022-10-01T10:04:28.863Z,186.02
2022-10-01T10:07:05.150Z,189.55
2022-10-01T10:09:34.990Z,191.85
2022-10-01T10:12:04.581Z,182.82
2022-10-01T10:14:40.771Z,190.30
2022-10-01T10:17:13.381Z,181.30
2022-10-01T10:19:41.207Z,182.43
2022-10-01T10:22:19.430Z,192.93
2022-10-01T10:24:47.202Z,190.60
2022-10-01T10:27:34.004Z,187.30
2022-10-01T10:30:14.772Z,189.07
2022-10-01T10:32:42.876Z,181.68
2022-10-01T10:35:15.407Z,184.47
2022-10-01T10:37:48.506Z,184.93
2022-10-01T10:40:29.332Z,185.35
2022-10-01T10:42:59.060Z,192.20
2022-10-01T10:45:38.092Z,191.18
2022-10-01T10:48:12.670Z,191.27
2022-10-01T10:50:42.897Z,194.63
2022-10-01T10:53:22.294Z,195.00
2022-10-01T10:55:58.285Z,195.57
2022-10-01T10:58:27.020Z,199.68
2022-10-01T11:00:57.467Z,193.65
2022-10-01T11:03:27.916Z,195.38
2022-10-01T11:06:00.037Z,198.15
2022-10-01T11:08:30.824Z,207.57
2022-10-01T11:11:12.994Z,206.02
2022-10-01T11:14:28.817Z,209.73
2022-10-01T11:17:36.106Z,211.30
2022-10-01T11:20:22.727Z,205.63
2022-10-01T11:23:11.200Z,202.18
2022-10-01T11:25:48.054Z,201.37
2022-10-01T11:28:20.760Z,188.80
2022-10-01T11:31:08.435Z,200.48
2022-10-01T11:33:45.104Z,198.13
2022-10-01T11:36:33.481Z,191.75
2022-10-01T11:39:17.869Z,190.77
2022-10-01T11:41:52.813Z,195.27
2022-10-01T11:44:23.908Z,195.80
2022-10-01T11:46:59.277Z,191.93
2022-10-01T11:49:38.617Z,193.50
2022-10-01T11:52:32.644Z,203.60
2022-10-01T11:55:36.627Z,201.77
2022-10-01T11:58:40.736Z,198.55
2022-10-01T12:01:14.223Z,186.40
2022-10-01T12:04:02.181Z,191.00
2022-10-01T12:06:59.760Z,190.68
2022-10-01T12:09:59.669Z,190.60
2022-10-01T12:12:38.197Z,187.23
2022-10-01T12:15:09.906Z,204.43
2022-10-01T12:17:52.503Z,219.98
2022-10-01T12:20:48.487Z,232.77
2022-10-01T12:23:20.000Z,269.27
2022-10-01T12:26:17.335Z,282.23
2022-10-01T12:29:00.369Z,277.50
2022-10-01T12:31:27.408Z,294.83
2022-10-01T12:34:17.276Z,279.65
2022-10-01T12:36:49.917Z,268.27
2022-10-01T12:39:37.341Z,237.65
2022-10-01T12:42:34.221Z,264.48
2022-10-01T12:45:22.007Z,277.40
2022-10-01T12:48:16.476Z,251.70
2022-10-01T12:50:43.000Z,239.80
2022-10-01T12:53:17.862Z,241.68
2022-10-01T12:56:16.152Z,260.87
2022-10-01T12:58:54.482Z,244.90
2022-10-01T13:01:24.175Z,257.80
2022-10-01T13:04:20.085Z,245.82
2022-10-01T13:07:42.656Z,267.13
2022-10-01T13:10:34.961Z,242.55
2022-10-01T13:13:08.866Z,263.08
2022-10-01T13:15:42.220Z,244.00
2022-10-01T13:18:29.374Z,256.02
2022-10-01T13:21:21.769Z,260.07
2022-10-01T13:24:16.336Z,249.95
2022-10-01T13:26:55.971Z,254.45
2022-10-01T13:29:29.020Z,249.75
2022-10-01T13:31:58.869Z,250.13
2022-10-01T13:34:43.136Z,243.95
2022-10-01T13:37:16.774Z,254.80
2022-10-01T13:39:47.452Z,251.52
2022-10-01T13:42:22.969Z,257.63
2022-10-01T13:44:59.891Z,257.60
2022-10-01T13:47:27.237Z,256.77
2022-10-01T13:50:27.023Z,251.10
2022-10-01T13:53:18.073Z,251.90
2022-10-01T13:55:50.683Z,239.63
2022-10-01T13:58:35.499Z,243.90
2022-10-01T14:01:05.364Z,252.40
2022-10-01T14:03:53.861Z,255.50
2022-10-01T14:06:36.194Z,255.82
2022-10-01T14:09:19.503Z,252.80
2022-10-01T14:12:10.537Z,252.57
2022-10-01T14:14:59.141Z,242.32
2022-10-01T14:17:29.995Z,252.38
2022-10-01T14:19:58.117Z,249.70
2022-10-01T14:23:01.690Z,257.17
2022-10-01T14:25:53.923Z,255.02
2022-10-01T14:28:27.064Z,257.50
2022-10-01T14:31:22.106Z,251.85
2022-10-01T14:34:21.591Z,262.00
2022-10-01T14:36:53.611Z,255.63
2022-10-01T14:39:30.485Z,261.30
2022-10-01T14:41:58.225Z,253.88
2022-10-01T14:44:31.644Z,247.38
2022-10-01T14:47:00.009Z,239.88
2022-10-01T14:49:35.585Z,244.65
2022-10-01T14:52:16.728Z,244.37
2022-10-01T14:54:53.119Z,243.13
2022-10-01T14:57:41.899Z,242.13
2022-10-01T15:00:15.586Z,229.15
2022-10-01T15:02:49.334Z,231.52
2022-10-01T15:05:29.039Z,241.95
2022-10-01T15:07:55.854Z,237.73
2022-10-01T15:10:26.886Z,248.63
2022-10-01T15:12:55.114Z,235.82
2022-10-01T15:15:31.179Z,231.05
2022-10-01T15:17:58.139Z,237.20
2022-10-01T15:20:24.801Z,222.55
2022-10-01T15:23:01.032Z,215.20
2022-10-01T15:25:31.496Z,218.97
2022-10-01T15:27:58.103Z,212.93
2022-10-01T15:30:27.527Z,215.27
2022-10-01T15:32:54.724Z,206.18
2022-10-01T15:35:23.576Z,211.98
2022-10-01T15:37:51.550Z,207.82
2022-10-01T15:40:26.525Z,209.30
2022-10-01T15:43:08.757Z,207.18
2022-10-01T15:45:38.112Z,221.52
2022-10-01T15:48:04.785Z,222.50
2022-10-01T15:50:36.632Z,214.65
2022-10-01T15:53:10.290Z,223.90
2022-10-01T15:55:42.453Z,215.10
2022-10-01T15:58:22.827Z,217.73
2022-10-01T16:01:09.452Z,208.27
2022-10-01T16:03:42.364Z,208.63
2022-10-01T16:06:26.188Z,207.60
2022-10-01T16:09:13.120Z,201.02
2022-10-01T16:11:53.494Z,186.02
2022-10-01T16:14:36.982Z,184.17
2022-10-01T16:17:26.875Z,192.77
2022-10-01T16:20:01.981Z,211.10
2022-10-01T16:22:32.976Z,207.82
2022-10-01T16:25:03.452Z,213.25
2022-10-01T16:27:50.621Z,215.20
2022-10-01T16:30:23.578Z,198.35
2022-10-01T16:32:50.263Z,200.68
2022-10-01T16:35:28.359Z,205.43
2022-10-01T16:37:56.844Z,192.98
2022-10-01T16:40:38.978Z,205.80
2022-10-01T16:43:10.055Z,253.70
2022-10-01T16:45:38.746Z,460.27
2022-10-01T16:48:19.889Z,451.77
2022-10-01T16:50:46.732Z,428.38
2022-10-01T16:53:15.986Z,346.13
2022-10-01T16:55:43.382Z,483.88
2022-10-01T16:58:10.822Z,500.20
2022-10-01T17:00:37.803Z,486.30
2022-10-01T17:03:09.007Z,486.52
2022-10-01T17:05:37.114Z,494.63
2022-10-01T17:08:10.925Z,487.10
2022-10-01T17:10:47.026Z,457.17
2022-10-01T17:13:16.236Z,472.80
2022-10-01T17:15:43.277Z,470.17
2022-10-01T17:18:10.245Z,439.10
2022-10-01T17:20:39.179Z,430.50
2022-10-01T17:23:06.230Z,426.02
2022-10-01T17:25:35.868Z,418.23
2022-10-01T17:28:05.276Z,423.83
2022-10-01T17:30:32.734Z,415.45
2022-10-01T17:33:00.687Z,398.90
2022-10-01T17:35:29.524Z,393.92
2022-10-01T17:37:56.672Z,390.98
2022-10-01T17:40:23.284Z,385.33
2022-10-01T17:42:50.130Z,370.95
2022-10-01T17:45:17.049Z,368.27
2022-10-01T17:47:45.183Z,366.55
2022-10-01T17:50:12.736Z,364.10
2022-10-01T17:52:39.468Z,345.80
2022-10-01T17:55:06.487Z,336.20
2022-10-01T17:57:33.525Z,351.77
2022-10-01T18:00:00.367Z,342.55
2022-10-01T18:02:41.633Z,357.20
2022-10-01T18:05:12.225Z,346.33
2022-10-01T18:07:39.027Z,356.83
2022-10-01T18:10:07.120Z,328.45
2022-10-01T18:12:33.849Z,325.27
2022-10-01T18:15:01.342Z,319.15
2022-10-01T18:17:27.971Z,310.23
2022-10-01T18:19:54.800Z,297.75
2022-10-01T18:22:21.499Z,290.07
2022-10-01T18:24:50.626Z,284.15
2022-10-01T18:27:17.421Z,260.88
2022-10-01T18:29:44.072Z,273.47
2022-10-01T18:32:25.947Z,262.33
2022-10-01T18:34:59.414Z,272.17
2022-10-01T18:37:52.276Z,260.77
2022-10-01T18:40:27.354Z,278.25
2022-10-01T18:43:08.568Z,265.77
2022-10-01T18:45:49.752Z,269.65
2022-10-01T18:48:47.586Z,263.88
2022-10-01T18:51:21.536Z,270.38
2022-10-01T18:54:18.877Z,283.42
2022-10-01T18:57:08.236Z,263.00
2022-10-01T19:00:11.205Z,263.52
2022-10-01T19:03:02.443Z,259.00
2022-10-01T19:05:54.004Z,256.13
2022-10-01T19:08:42.127Z,257.33
2022-10-01T19:11:23.274Z,254.00
2022-10-01T19:13:58.042Z,244.17
2022-10-01T19:16:52.404Z,320.60
2022-10-01T19:19:31.314Z,377.75
2022-10-01T19:22:20.470Z,319.85
2022-10-01T19:25:11.090Z,338.40
2022-10-01T19:28:01.554Z,333.52
2022-10-01T19:30:38.450Z,322.02
2022-10-01T19:33:09.451Z,309.70
2022-10-01T19:35:41.627Z,287.30
2022-10-01T19:38:25.046Z,281.43
2022-10-01T19:40:59.247Z,281.63
2022-10-01T19:43:37.590Z,294.38
2022-10-01T19:46:13.011Z,278.35
2022-10-01T19:48:51.038Z,288.45
2022-10-01T19:51:21.805Z,274.23
2022-10-01T19:53:56.409Z,282.35
2022-10-01T19:56:27.005Z,277.43
2022-10-01T19:58:53.808Z,285.73
2022-10-01T20:01:24.156Z,281.25
2022-10-01T20:04:00.634Z,272.65
2022-10-01T20:06:38.889Z,276.60
2022-10-01T20:09:20.548Z,296.45
2022-10-01T20:11:59.322Z,273.85
2022-10-01T20:15:00.612Z,268.35
2022-10-01T20:17:52.268Z,281.55
2022-10-01T20:20:45.126Z,284.27
2022-10-01T20:23:36.867Z,300.30
2022-10-01T20:26:31.552Z,260.27
2022-10-01T20:29:43.288Z,285.27
2022-10-01T20:32:09.794Z,251.15
2022-10-01T20:34:44.374Z,255.67
2022-10-01T20:37:42.177Z,252.68
2022-10-01T20:40:18.671Z,255.75
2022-10-01T20:42:49.800Z,253.80
2022-10-01T20:45:26.635Z,269.52
2022-10-01T20:47:58.751Z,254.18
2022-10-01T20:50:32.413Z,233.43
2022-10-01T20:53:26.834Z,233.65
2022-10-01T20:56:10.015Z,216.45
2022-10-01T20:58:44.548Z,223.13
2022-10-01T21:01:20.590Z,218.57
2022-10-01T21:03:52.005Z,228.88
2022-10-01T21:06:26.520Z,225.77
2022-10-01T21:09:21.369Z,229.30
2022-10-01T21:12:00.084Z,250.90
2022-10-01T21:14:34.413Z,231.13
2022-10-01T21:17:01.058Z,241.68
2022-10-01T21:20:00.207Z,268.60
2022-10-01T21:22:32.359Z,248.32
2022-10-01T21:25:34.436Z,263.73
2022-10-01T21:28:14.678Z,258.40
2022-10-01T21:31:10.611Z,279.85
2022-10-01T21:33:47.062Z,266.17
2022-10-01T21:36:23.014Z,265.52
2022-10-01T21:38:57.085Z,268.08
2022-10-01T21:41:54.195Z,235.52
2022-10-01T21:44:45.248Z,245.53
2022-10-01T21:47:23.302Z,231.23
2022-10-01T21:50:15.424Z,245.18
2022-10-01T21:53:10.400Z,266.27
2022-10-01T21:55:47.953Z,244.03
2022-10-01T21:58:32.923Z,251.20
2022-10-01T22:01:15.929Z,249.25
2022-10-01T22:04:00.829Z,268.75
2022-10-01T22:06:38.639Z,322.05
2022-10-01T22:09:22.459Z,326.48
2022-10-01T22:11:56.349Z,318.70
2022-10-01T22:14:31.452Z,357.95
2022-10-01T22:17:14.621Z,344.25
2022-10-01T22:19:46.671Z,354.83
2022-10-01T22:22:21.121Z,344.87
2022-10-01T22:24:51.132Z,351.85
2022-10-01T22:27:27.789Z,358.15
2022-10-01T22:30:18.589Z,348.27
2022-10-01T22:32:49.857Z,359.10
2022-10-01T22:35:38.893Z,358.60
2022-10-01T22:38:15.007Z,371.23
2022-10-01T22:40:51.546Z,365.80
2022-10-01T22:43:18.166Z,338.35
2022-10-01T22:46:03.522Z,295.93
2022-10-01T22:48:48.524Z,316.92
2022-10-01T22:51:45.837Z,334.50
2022-10-01T22:54:29.458Z,342.85
2022-10-01T22:56:59.184Z,307.83
2022-10-01T22:59:49.098Z,313.23
2022-10-01T23:02:28.881Z,331.07
2022-10-01T23:05:11.026Z,368.13
2022-10-01T23:08:09.130Z,322.90
2022-10-01T23:10:58.825Z,345.45
2022-10-01T23:13:42.444Z,334.85
2022-10-01T23:16:32.142Z,336.70
2022-10-01T23:19:11.912Z,312.02
2022-10-01T23:22:09.496Z,307.00
2022-10-01T23:25:06.057Z,304.80
2022-10-01T23:28:01.617Z,297.60
2022-10-01T23:30:43.570Z,337.10
2022-10-01T23:33:40.885Z,307.85
2022-10-01T23:36:35.487Z,341.48
2022-10-01T23:39:24.207Z,331.15
2022-10-01T23:42:20.049Z,351.55
2022-10-01T23:44:54.688Z,349.23
2022-10-01T23:47:30.421Z,364.42
2022-10-01T23:50:00.434Z,363.50
2022-10-01T23:52:47.304Z,360.85
2022-10-01T23:55:38.735Z,342.85
2022-10-01T23:58:11.057Z,365.73
